Time;durP1;ratioP1;P1;durP2;ratioP2;P2;SDS_P1;SDS_P2;PMS_P1;PMS_P2;Temp;Humidity;BMP_temperature;BMP_pressure;BME280_temperature;BME280_humidity;BME280_pressure;Samples;Min_cycle;Max_cycle;Signal;HPM_P1;HPM_P2
2023/06/07 00:00:23;;;;;;;4.67;2.40;;;;;;;21.91;59.54;97528.94;5064907;28;20229;-26
2023/06/07 00:02:50;;;;;;;2.60;2.40;;;;;;;21.91;59.43;97522.13;5070132;28;20235;-26
2023/06/07 00:05:20;;;;;;;2.30;2.20;;;;;;;21.91;59.44;97523.81;5070410;28;20214;-26
2023/06/07 00:07:46;;;;;;;2.50;2.30;;;;;;;21.92;59.32;97516.19;5063573;28;20208;-26
2023/06/07 00:10:13;;;;;;;2.70;2.50;;;;;;;21.91;59.40;97518.72;5068110;28;20273;-26
2023/06/07 00:12:40;;;;;;;2.30;2.20;;;;;;;21.91;59.52;97519.59;5065632;28;20205;-26
2023/06/07 00:15:07;;;;;;;2.50;2.30;;;;;;;21.91;59.44;97516.16;5066974;28;20212;-26
2023/06/07 00:17:37;;;;;;;2.80;2.60;;;;;;;21.92;59.46;97520.44;5067668;28;20200;-26
2023/06/07 00:20:05;;;;;;;2.47;2.27;;;;;;;21.92;59.49;97512.75;5068366;28;20322;-26
2023/06/07 00:22:33;;;;;;;2.60;2.40;;;;;;;21.91;59.48;97514.47;5066184;28;20295;-26
2023/06/07 00:25:01;;;;;;;2.40;2.20;;;;;;;21.90;59.37;97520.38;5066651;28;20204;-26
2023/06/07 00:27:27;;;;;;;2.60;2.40;;;;;;;21.89;59.51;97511.00;5068244;28;20204;-26
2023/06/07 00:29:54;;;;;;;2.40;2.20;;;;;;;21.90;59.54;97505.03;5065737;28;20220;-26
2023/06/07 00:32:20;;;;;;;2.63;2.43;;;;;;;21.91;59.52;97509.34;5069388;28;20635;-26
2023/06/07 00:34:48;;;;;;;2.50;2.30;;;;;;;21.91;59.56;97501.69;5056564;28;20227;-26
2023/06/07 00:37:15;;;;;;;2.60;2.40;;;;;;;21.92;59.31;97505.97;5059052;28;20219;-37
2023/06/07 00:39:41;;;;;;;2.63;2.43;;;;;;;21.94;59.51;97500.88;5044880;28;20278;-26
2023/06/07 00:42:08;;;;;;;2.30;2.17;;;;;;;21.93;59.22;97500.00;5055571;28;20204;-26
2023/06/07 00:44:34;;;;;;;2.60;2.40;;;;;;;21.93;59.50;97494.03;5063122;28;20196;-26
2023/06/07 00:47:02;;;;;;;2.47;2.27;;;;;;;21.94;59.50;97501.75;5061746;28;20212;-26
2023/06/07 00:49:29;;;;;;;2.30;2.17;;;;;;;21.94;59.41;97503.44;5063352;28;20221;-26
2023/06/07 00:51:55;;;;;;;2.23;2.10;;;;;;;21.92;59.26;97507.63;5037857;28;20232;-26
2023/06/07 00:54:22;;;;;;;2.33;2.23;;;;;;;21.92;59.40;97505.97;5048046;28;20258;-26
2023/06/07 00:56:50;;;;;;;2.97;2.67;;;;;;;21.93;59.18;97509.38;5053822;28;20204;-26
2023/06/07 00:59:18;;;;;;;2.27;2.10;;;;;;;21.92;59.19;97505.06;5040377;28;20232;-26
2023/06/07 01:01:44;;;;;;;2.63;2.43;;;;;;;21.92;59.36;97503.41;5050016;28;20228;-26
2023/06/07 01:04:11;;;;;;;2.40;2.20;;;;;;;21.92;59.42;97500.84;5048546;28;20204;-26
2023/06/07 01:06:38;;;;;;;2.40;2.20;;;;;;;21.91;59.40;97499.13;5043107;28;20226;-26
2023/06/07 01:09:07;;;;;;;2.00;1.90;;;;;;;21.92;59.31;97494.84;5063862;28;20211;-26
2023/06/07 01:11:33;;;;;;;2.30;2.10;;;;;;;21.92;59.23;97499.97;5043233;28;20204;-26
2023/06/07 01:14:00;;;;;;;2.10;2.00;;;;;;;21.91;59.26;97499.13;5033644;28;20223;-26
2023/06/07 01:16:27;;;;;;;2.57;2.30;;;;;;;21.90;59.45;97496.50;5037036;28;20208;-26
2023/06/07 01:18:56;;;;;;;2.73;2.53;;;;;;;21.91;59.33;97498.22;5063430;28;20739;-26
2023/06/07 01:21:23;;;;;;;2.10;2.00;;;;;;;21.91;59.38;97495.69;5048941;28;20329;-26
2023/06/07 01:23:49;;;;;;;2.20;2.10;;;;;;;21.90;59.41;97499.91;5046011;28;20196;-26
2023/06/07 01:26:17;;;;;;;2.20;2.10;;;;;;;21.90;59.48;97491.41;5066755;28;20551;-26
2023/06/07 01:28:44;;;;;;;2.20;2.10;;;;;;;21.87;59.41;97487.03;5045826;28;20193;-26
2023/06/07 01:31:12;;;;;;;2.30;2.20;;;;;;;21.90;59.24;97493.97;5033985;28;20223;-29
2023/06/07 01:33:38;;;;;;;2.53;2.33;;;;;;;21.90;59.41;97493.97;5042835;28;20203;-26
2023/06/07 01:36:05;;;;;;;2.33;2.17;;;;;;;21.90;59.45;97499.91;5050703;28;20204;-26
2023/06/07 01:38:32;;;;;;;2.40;2.20;;;;;;;21.89;59.14;97492.19;5046264;28;20231;-26
2023/06/07 01:40:58;;;;;;;2.10;2.00;;;;;;;21.83;59.36;97490.34;5023313;28;20349;-26
2023/06/07 01:43:25;;;;;;;2.23;2.13;;;;;;;21.90;59.35;97502.47;5032060;28;20204;-26
2023/06/07 01:45:52;;;;;;;2.33;2.13;;;;;;;21.90;59.39;97501.63;5018055;28;20197;-26
2023/06/07 01:48:18;;;;;;;2.33;2.13;;;;;;;21.91;59.25;97503.34;5064691;28;20228;-26
2023/06/07 01:50:45;;;;;;;2.50;2.30;;;;;;;21.89;59.37;97505.88;5057951;28;20248;-26
2023/06/07 01:53:12;;;;;;;2.30;2.10;;;;;;;21.88;59.44;97501.59;5068090;28;20215;-26
2023/06/07 01:55:38;;;;;;;2.50;2.30;;;;;;;21.88;59.43;97499.03;5060163;28;20201;-26
2023/06/07 01:58:23;;;;;;;2.50;2.30;;;;;;;21.89;59.43;97494.75;5064268;28;20197;-27
2023/06/07 02:01:08;;;;;;;2.20;2.00;;;;;;;21.88;59.28;97491.34;5059016;28;20212;-26
2023/06/07 02:03:44;;;;;;;2.40;2.20;;;;;;;21.83;59.43;97481.78;5056454;28;20295;-26
2023/06/07 02:06:13;;;;;;;2.17;2.07;;;;;;;21.90;59.24;97491.41;5029130;28;20211;-26
2023/06/07 02:08:44;;;;;;;2.60;2.20;;;;;;;21.91;59.34;97485.44;5049456;28;20196;-26
2023/06/07 02:11:11;;;;;;;2.40;2.20;;;;;;;21.90;59.26;97481.16;5035027;28;20229;-26
2023/06/07 02:13:40;;;;;;;2.20;2.10;;;;;;;21.91;59.29;97494.00;5032961;28;20608;-26
2023/06/07 02:16:06;;;;;;;2.10;2.00;;;;;;;21.91;59.35;97486.31;5053679;28;20220;-26
2023/06/07 02:18:40;;;;;;;1.80;1.70;;;;;;;21.90;58.96;97492.25;5061330;28;20700;-26
2023/06/07 02:21:10;;;;;;;2.30;2.10;;;;;;;21.91;59.21;97488.00;5071287;28;20312;-26
2023/06/07 02:23:37;;;;;;;2.37;2.17;;;;;;;21.91;59.17;97490.56;5068315;28;20324;-26
2023/06/07 02:26:03;;;;;;;2.43;2.27;;;;;;;21.91;59.34;97488.00;5041083;28;20290;-26
2023/06/07 02:28:30;;;;;;;2.53;2.33;;;;;;;21.90;59.16;97488.84;5068524;28;20255;-26
2023/06/07 02:30:57;;;;;;;2.30;2.10;;;;;;;21.90;59.33;97488.84;5067795;28;20307;-26
2023/06/07 02:33:24;;;;;;;2.37;2.17;;;;;;;21.89;59.23;97480.28;5069579;28;20201;-26
2023/06/07 02:35:51;;;;;;;2.47;2.27;;;;;;;21.90;59.19;97488.84;5068497;28;20211;-26
2023/06/07 02:38:17;;;;;;;2.23;2.10;;;;;;;21.90;59.21;97483.72;5071105;28;20193;-26
2023/06/07 02:40:44;;;;;;;2.27;2.17;;;;;;;21.89;59.50;97487.97;5052725;28;20224;-26
2023/06/07 02:43:11;;;;;;;2.50;2.30;;;;;;;21.89;59.59;97489.63;5056194;28;20199;-26
2023/06/07 02:45:37;;;;;;;2.17;2.07;;;;;;;21.88;59.28;97490.47;5068423;28;20239;-26
2023/06/07 02:48:05;;;;;;;2.67;2.47;;;;;;;21.89;59.26;97494.75;5067300;28;20230;-26
2023/06/07 02:50:31;;;;;;;2.00;1.90;;;;;;;21.86;59.33;97490.44;5068883;28;20616;-26
2023/06/07 02:52:59;;;;;;;2.63;2.43;;;;;;;21.88;59.38;97496.47;5049978;28;20200;-26
2023/06/07 02:55:26;;;;;;;2.33;2.13;;;;;;;21.88;59.37;97499.03;5070740;28;20193;-26
2023/06/07 02:57:53;;;;;;;2.00;1.90;;;;;;;21.88;59.32;97493.03;5069006;28;20207;-26
2023/06/07 03:00:19;;;;;;;1.97;1.87;;;;;;;21.88;58.87;97495.59;5065995;28;20247;-26
2023/06/07 03:02:46;;;;;;;2.17;2.07;;;;;;;21.89;59.32;97502.44;5066818;28;20223;-26
2023/06/07 03:05:12;;;;;;;2.10;2.00;;;;;;;21.88;59.28;97499.03;5071056;28;20679;-26
2023/06/07 03:07:40;;;;;;;2.10;2.00;;;;;;;21.88;59.23;97504.16;5067910;28;20204;-26
2023/06/07 03:10:07;;;;;;;2.30;2.20;;;;;;;21.89;59.17;97499.88;5065039;28;20221;-26
2023/06/07 03:12:34;;;;;;;2.47;2.30;;;;;;;21.88;59.33;97498.16;5066214;28;20207;-26
2023/06/07 03:15:00;;;;;;;2.47;2.27;;;;;;;21.88;59.22;97500.72;5059569;28;20250;-26
2023/06/07 03:17:27;;;;;;;2.20;2.10;;;;;;;21.86;59.44;97503.22;5067454;28;20627;-26
2023/06/07 03:19:54;;;;;;;2.33;2.13;;;;;;;21.87;59.31;97504.09;5066092;28;20266;-26
2023/06/07 03:22:21;;;;;;;2.23;2.03;;;;;;;21.86;59.22;97505.78;5070712;28;20227;-26
2023/06/07 03:24:49;;;;;;;2.10;2.00;;;;;;;21.87;59.40;97507.50;5067904;28;20250;-26
2023/06/07 03:27:17;;;;;;;2.20;2.10;;;;;;;21.87;59.34;97504.09;5071331;28;20277;-26
2023/06/07 03:29:44;;;;;;;2.10;2.00;;;;;;;21.87;59.37;97510.06;5066120;28;20216;-26
2023/06/07 03:32:11;;;;;;;2.53;2.33;;;;;;;21.89;59.08;97511.00;5067184;28;20210;-26
2023/06/07 03:34:41;;;;;;;2.00;1.90;;;;;;;21.90;59.27;97511.88;5068158;28;20254;-26
2023/06/07 03:37:08;;;;;;;2.10;2.00;;;;;;;21.90;59.26;97514.44;5067616;28;20204;-26
2023/06/07 03:39:36;;;;;;;2.30;2.10;;;;;;;21.87;59.17;97512.63;5069903;28;20224;-26
2023/06/07 03:42:02;;;;;;;2.30;2.20;;;;;;;21.89;59.22;97517.78;5041743;28;20220;-26
2023/06/07 03:44:29;;;;;;;2.10;2.00;;;;;;;21.90;59.31;97522.09;5070677;28;20211;-26
2023/06/07 03:46:56;;;;;;;2.27;2.07;;;;;;;21.89;59.22;97516.09;5050969;28;20285;-26
2023/06/07 03:49:22;;;;;;;2.13;2.03;;;;;;;21.88;59.30;97513.50;5064855;28;20250;-26
2023/06/07 03:51:50;;;;;;;2.17;2.07;;;;;;;21.88;59.19;97524.63;5066367;28;20242;-26
2023/06/07 03:54:17;;;;;;;2.10;2.00;;;;;;;21.89;58.58;97522.91;5064211;28;20200;-26
2023/06/07 03:56:44;;;;;;;2.10;2.00;;;;;;;21.87;59.08;97522.00;5068671;28;20555;-26
2023/06/07 03:59:12;;;;;;;2.20;2.10;;;;;;;21.88;59.29;97528.84;5064214;28;20197;-26
2023/06/07 04:01:39;;;;;;;2.13;2.03;;;;;;;21.88;59.12;97527.19;5057721;28;20256;-26
2023/06/07 04:04:06;;;;;;;2.30;2.20;;;;;;;21.88;59.18;97528.84;5068793;28;20196;-26
2023/06/07 04:06:34;;;;;;;2.10;2.00;;;;;;;21.87;59.25;97527.97;5062920;28;20236;-26
2023/06/07 04:09:02;;;;;;;2.20;2.10;;;;;;;21.87;59.22;97533.09;5072481;28;20647;-26
2023/06/07 04:11:29;;;;;;;1.93;1.83;;;;;;;21.88;59.48;97533.97;5062321;28;20212;-26
2023/06/07 04:13:56;;;;;;;2.03;1.93;;;;;;;21.87;59.11;97535.66;5056905;28;20689;-26
2023/06/07 04:16:22;;;;;;;2.00;1.90;;;;;;;21.87;59.20;97540.78;5066194;28;20197;-26
2023/06/07 04:18:49;;;;;;;2.00;1.90;;;;;;;21.87;59.34;97540.78;5049895;28;20215;-26
2023/06/07 04:21:16;;;;;;;2.20;2.00;;;;;;;21.87;59.36;97539.94;5068245;28;20229;-26
2023/06/07 04:23:42;;;;;;;2.17;2.00;;;;;;;21.87;59.37;97543.31;5065587;28;20220;-26
2023/06/07 04:26:09;;;;;;;2.07;1.97;;;;;;;21.87;59.41;97538.22;5070723;28;20308;-26
2023/06/07 04:28:37;;;;;;;2.10;2.00;;;;;;;21.88;59.07;97541.66;5064998;28;20204;-26
2023/06/07 04:31:07;;;;;;;2.10;2.00;;;;;;;21.87;59.37;97538.22;5064590;28;20633;-27
2023/06/07 04:33:35;;;;;;;2.20;2.10;;;;;;;21.88;59.20;97554.44;5065667;28;20204;-26
2023/06/07 04:36:02;;;;;;;1.97;1.87;;;;;;;21.87;59.46;97545.88;5058133;28;20237;-26
2023/06/07 04:38:29;;;;;;;2.03;1.93;;;;;;;21.88;59.36;97544.22;5066895;28;20197;-26
2023/06/07 04:40:56;;;;;;;2.30;2.20;;;;;;;21.87;59.21;97552.72;5065530;28;20246;-26
2023/06/07 04:43:23;;;;;;;2.30;2.10;;;;;;;21.85;59.27;97545.00;5063795;28;20208;-26
2023/06/07 04:45:55;;;;;;;2.17;2.07;;;;;;;21.85;59.08;97550.13;5061206;28;20196;-26
2023/06/07 04:48:28;;;;;;;2.10;2.00;;;;;;;21.86;59.25;97553.53;5054083;28;20563;-26
2023/06/07 04:50:56;;;;;;;2.03;1.93;;;;;;;21.86;59.32;97558.63;5052147;28;20644;-26
2023/06/07 04:53:23;;;;;;;2.27;2.07;;;;;;;21.85;59.31;97562.91;5063666;28;20273;-26
2023/06/07 04:55:50;;;;;;;2.03;1.93;;;;;;;21.88;59.15;97557.00;5068104;28;20252;-26
2023/06/07 04:58:17;;;;;;;2.00;1.90;;;;;;;21.87;59.16;97558.69;5059148;28;20283;-26
2023/06/07 05:00:43;;;;;;;1.77;1.67;;;;;;;21.88;59.23;97559.56;5063981;28;20257;-26
2023/06/07 05:03:13;;;;;;;2.13;2.03;;;;;;;21.89;59.31;97561.28;5064732;28;20280;-26
2023/06/07 05:05:42;;;;;;;2.00;1.90;;;;;;;21.89;59.20;97559.59;5054826;28;20679;-26
2023/06/07 05:08:09;;;;;;;2.57;2.37;;;;;;;21.90;59.13;97565.59;5059352;28;20197;-26
2023/06/07 05:10:36;;;;;;;2.03;1.93;;;;;;;21.90;59.04;97563.88;5066181;28;20224;-26
2023/06/07 05:13:02;;;;;;;2.00;1.90;;;;;;;21.89;58.95;97562.16;5059742;28;20597;-26
2023/06/07 05:15:31;;;;;;;2.17;2.00;;;;;;;21.90;59.00;97560.47;5066459;28;20197;-26
2023/06/07 05:17:58;;;;;;;2.23;2.13;;;;;;;21.89;59.01;97569.84;5062698;28;20201;-26
2023/06/07 05:20:24;;;;;;;2.10;2.00;;;;;;;21.90;58.84;97568.16;5065976;28;20220;-26
2023/06/07 05:22:51;;;;;;;2.33;2.20;;;;;;;21.90;59.21;97565.59;5065540;28;20229;-26
2023/06/07 05:25:18;;;;;;;2.00;1.90;;;;;;;21.90;59.24;97563.03;5066064;28;20231;-26
2023/06/07 05:27:45;;;;;;;2.00;1.90;;;;;;;21.89;59.25;97569.84;5067731;28;20201;-26
2023/06/07 05:30:25;;;;;;;2.13;2.03;;;;;;;21.88;59.03;97567.22;5063750;28;20615;-26
2023/06/07 05:32:52;;;;;;;2.07;1.97;;;;;;;21.90;59.19;97570.72;5068585;28;20204;-26
2023/06/07 05:35:19;;;;;;;2.10;2.00;;;;;;;21.89;59.05;97569.84;5060375;28;20628;-26
2023/06/07 05:37:46;;;;;;;2.00;1.90;;;;;;;21.90;59.19;97569.00;5068033;28;20662;-26
2023/06/07 05:40:16;;;;;;;2.20;2.10;;;;;;;21.87;58.98;97566.34;5061938;28;20312;-26
2023/06/07 05:42:42;;;;;;;2.23;2.03;;;;;;;21.90;59.37;97578.38;5068779;28;20709;-26
2023/06/07 05:45:09;;;;;;;1.93;1.83;;;;;;;21.90;59.08;97579.25;5064432;28;20196;-26
2023/06/07 05:47:35;;;;;;;2.00;1.90;;;;;;;21.90;59.04;97579.25;5068733;28;20211;-26
2023/06/07 05:50:04;;;;;;;2.00;1.90;;;;;;;21.89;59.22;97574.97;5066785;28;20224;-26
2023/06/07 05:52:31;;;;;;;1.90;1.80;;;;;;;21.88;59.18;97578.34;5060121;28;20546;-26
2023/06/07 05:54:58;;;;;;;2.03;1.93;;;;;;;21.91;59.11;97582.69;5068902;28;20200;-26
2023/06/07 05:57:25;;;;;;;2.27;2.17;;;;;;;21.90;59.17;97581.78;5060859;28;20211;-26
2023/06/07 05:59:52;;;;;;;2.13;1.97;;;;;;;21.90;59.25;97579.25;5064146;28;20652;-26
2023/06/07 06:02:20;;;;;;;1.80;1.70;;;;;;;21.89;58.89;97585.19;5062185;28;20232;-26
2023/06/07 06:04:47;;;;;;;2.17;2.07;;;;;;;21.90;59.03;97578.38;5065336;28;20229;-26
2023/06/07 06:07:15;;;;;;;2.30;2.20;;;;;;;21.89;59.19;97584.31;5064195;28;20230;-27
2023/06/07 06:09:42;;;;;;;2.00;1.90;;;;;;;21.87;59.27;97574.03;5065818;28;20229;-26
2023/06/07 06:12:09;;;;;;;1.90;1.80;;;;;;;21.88;59.06;97578.34;5064648;28;20210;-26
2023/06/07 06:14:37;;;;;;;1.97;1.87;;;;;;;21.89;59.23;97579.19;5067164;28;20304;-26
2023/06/07 06:17:05;;;;;;;2.50;2.23;;;;;;;21.87;59.16;97584.25;5065578;28;20208;-26
2023/06/07 06:19:32;;;;;;;2.00;1.90;;;;;;;21.90;59.17;97593.75;5060591;28;20216;-26
2023/06/07 06:21:59;;;;;;;2.30;2.10;;;;;;;21.91;59.21;97585.22;5066346;28;20223;-26
2023/06/07 06:24:25;;;;;;;2.10;2.00;;;;;;;21.91;58.93;97592.91;5062964;28;20628;-26
2023/06/07 06:26:52;;;;;;;2.10;2.00;;;;;;;21.91;59.02;97586.09;5066959;28;20200;-26
2023/06/07 06:29:18;;;;;;;1.90;1.80;;;;;;;21.91;59.16;97591.22;5057886;28;20204;-26
2023/06/07 06:31:45;;;;;;;2.10;2.00;;;;;;;21.92;58.98;97592.06;5049059;28;20243;-26
2023/06/07 06:34:12;;;;;;;2.40;2.20;;;;;;;21.92;59.03;97595.50;5065146;28;20246;-26
2023/06/07 06:36:39;;;;;;;2.20;2.10;;;;;;;21.93;59.14;97593.84;5057784;28;20205;-26
2023/06/07 06:39:07;;;;;;;2.30;2.10;;;;;;;21.92;59.20;97597.19;5065870;28;20196;-26
2023/06/07 06:41:35;;;;;;;2.27;2.17;;;;;;;21.91;59.08;97588.66;5061466;28;20220;-26
2023/06/07 06:44:02;;;;;;;2.60;2.40;;;;;;;21.92;58.92;97597.19;5066693;28;20728;-26
2023/06/07 06:46:28;;;;;;;2.30;2.10;;;;;;;21.91;59.11;97591.22;5064156;28;20610;-26
2023/06/07 06:48:55;;;;;;;2.27;2.17;;;;;;;21.90;59.12;97592.03;5069344;28;20207;-26
2023/06/07 06:51:37;;;;;;;2.10;2.00;;;;;;;21.92;59.00;97594.63;5066504;28;20654;-26
2023/06/07 06:54:06;;;;;;;2.23;2.03;;;;;;;21.91;59.11;97586.09;5063971;28;20254;-26
2023/06/07 06:56:33;;;;;;;2.10;2.00;;;;;;;21.91;59.13;97592.91;5069396;28;20575;-26
2023/06/07 06:59:00;;;;;;;2.30;2.10;;;;;;;21.91;59.08;97595.47;5027830;28;20196;-26
2023/06/07 07:01:36;;;;;;;2.23;2.10;;;;;;;21.90;59.17;97602.25;5070155;28;20220;-26
2023/06/07 07:04:05;;;;;;;2.13;2.03;;;;;;;21.92;59.09;97604.88;5034961;28;20207;-26
2023/06/07 07:06:32;;;;;;;2.20;2.10;;;;;;;21.91;59.10;97610.81;5063176;28;20492;-26
2023/06/07 07:08:58;;;;;;;2.23;2.10;;;;;;;21.91;58.96;97604.03;5060065;28;20206;-26
2023/06/07 07:11:25;;;;;;;2.10;2.00;;;;;;;21.90;59.11;97606.53;5063768;28;20278;-26
2023/06/07 07:13:53;;;;;;;2.30;2.20;;;;;;;21.90;59.11;97609.94;5072397;28;20649;-26
2023/06/07 07:16:19;;;;;;;2.33;2.20;;;;;;;21.90;59.05;97598.88;5048530;28;20197;-26
2023/06/07 07:18:46;;;;;;;2.50;2.30;;;;;;;21.90;59.28;97592.03;5072537;28;20206;-26
2023/06/07 07:21:13;;;;;;;2.50;2.30;;;;;;;21.90;59.15;97594.59;5065601;28;20227;-26
2023/06/07 07:23:39;;;;;;;2.50;2.33;;;;;;;21.89;59.18;97597.97;5063616;28;20714;-26
2023/06/07 07:26:09;;;;;;;2.50;2.30;;;;;;;21.89;59.06;97592.88;5070814;28;20580;-26
2023/06/07 07:28:36;;;;;;;2.00;1.90;;;;;;;21.90;59.22;97593.75;5063843;28;20611;-26
2023/06/07 07:31:02;;;;;;;2.13;2.03;;;;;;;21.88;59.10;97591.13;5072553;28;20251;-26
2023/06/07 07:33:29;;;;;;;2.30;2.20;;;;;;;21.89;59.11;97595.41;5064495;28;20223;-26
2023/06/07 07:36:00;;;;;;;2.20;2.10;;;;;;;21.88;59.21;97587.69;5072884;28;20196;-26
2023/06/07 07:38:27;;;;;;;2.03;1.93;;;;;;;21.88;59.12;97593.69;5066477;28;20201;-26
2023/06/07 07:40:53;;;;;;;2.40;2.20;;;;;;;21.87;58.98;97588.53;5064696;28;20641;-26
2023/06/07 07:43:20;;;;;;;2.30;2.10;;;;;;;21.89;59.01;97595.41;5069034;28;20696;-26
2023/06/07 07:45:46;;;;;;;2.53;2.33;;;;;;;21.88;59.23;97588.59;5064596;28;20617;-26
2023/06/07 07:48:13;;;;;;;2.33;2.13;;;;;;;21.91;59.19;97590.34;5071633;28;20254;-26
2023/06/07 07:50:40;;;;;;;2.00;1.90;;;;;;;21.92;59.07;97595.50;5057918;28;20794;-26
2023/06/07 07:53:06;;;;;;;2.20;2.10;;;;;;;21.92;58.46;97597.19;5062598;28;20205;-26
2023/06/07 07:55:34;;;;;;;2.40;2.20;;;;;;;21.92;59.06;97592.06;5064350;28;20207;-26
2023/06/07 07:58:01;;;;;;;2.23;2.10;;;;;;;21.92;58.92;97592.94;5049307;28;20208;-26
2023/06/07 08:00:28;;;;;;;2.10;2.00;;;;;;;21.93;58.99;97596.38;5061333;28;20220;-26
2023/06/07 08:02:54;;;;;;;2.23;2.10;;;;;;;21.94;58.96;97598.13;5069224;28;20231;-26
2023/06/07 08:05:21;;;;;;;2.17;2.07;;;;;;;21.93;59.14;97596.38;5067630;28;20196;-26
2023/06/07 08:07:48;;;;;;;2.47;2.27;;;;;;;21.92;59.01;97595.50;5062621;28;20197;-26
2023/06/07 08:10:14;;;;;;;2.13;2.03;;;;;;;21.93;59.06;97592.13;5067845;28;20598;-26
2023/06/07 08:12:41;;;;;;;2.20;2.10;;;;;;;21.92;59.05;97582.72;5063847;28;20732;-26
2023/06/07 08:15:08;;;;;;;2.23;2.13;;;;;;;21.92;58.93;97585.28;5069201;28;20573;-26
2023/06/07 08:17:35;;;;;;;2.10;2.00;;;;;;;21.93;59.10;97581.03;5065892;28;20238;-26
2023/06/07 08:20:04;;;;;;;2.50;2.30;;;;;;;21.91;59.08;97575.88;5061358;28;20281;-26
2023/06/07 08:22:32;;;;;;;2.50;2.33;;;;;;;21.92;58.99;97577.59;5053812;28;20316;-26
2023/06/07 08:24:58;;;;;;;2.13;2.03;;;;;;;21.91;58.99;97578.44;5053045;28;20249;-26
2023/06/07 08:27:25;;;;;;;2.27;2.17;;;;;;;21.91;59.18;97578.44;5049391;28;20204;-26
2023/06/07 08:29:51;;;;;;;2.30;2.10;;;;;;;21.91;59.01;97570.75;5062240;28;20224;-26
2023/06/07 08:32:18;;;;;;;2.00;1.90;;;;;;;21.91;58.99;97567.31;5069479;28;20200;-26
2023/06/07 08:34:45;;;;;;;2.20;2.10;;;;;;;21.92;59.16;97571.59;5053841;28;20201;-26
2023/06/07 08:37:11;;;;;;;2.20;2.10;;;;;;;21.91;58.98;97573.31;5065378;28;20200;-26
2023/06/07 08:39:38;;;;;;;2.07;1.97;;;;;;;21.92;59.06;97571.59;5051322;28;20235;-26
2023/06/07 08:42:05;;;;;;;2.37;2.17;;;;;;;21.91;59.17;97572.44;5071976;28;20224;-26
2023/06/07 08:44:32;;;;;;;2.20;2.10;;;;;;;21.92;59.06;97574.16;5061680;28;20201;-26
2023/06/07 08:46:59;;;;;;;1.80;1.70;;;;;;;21.87;59.06;97574.03;5063574;28;20204;-26
2023/06/07 08:49:28;;;;;;;1.90;1.80;;;;;;;21.82;59.01;97562.81;5048490;28;20300;-26
2023/06/07 08:51:55;;;;;;;2.13;2.03;;;;;;;21.90;59.12;97571.56;5028540;28;20664;-26
2023/06/07 08:54:42;;;;;;;2.37;2.17;;;;;;;21.91;58.98;97573.31;5047814;28;20208;-26
2023/06/07 08:57:09;;;;;;;2.20;2.10;;;;;;;21.90;58.96;97575.84;5060813;28;20203;-26
2023/06/07 08:59:36;;;;;;;2.10;2.00;;;;;;;21.91;59.01;97580.13;5053717;28;20557;-26
2023/06/07 09:02:03;;;;;;;2.10;2.00;;;;;;;21.90;59.05;97575.84;5032860;28;20246;-26
2023/06/07 09:04:30;;;;;;;2.33;2.20;;;;;;;21.90;59.21;97573.28;5065235;28;20213;-26
2023/06/07 09:06:56;;;;;;;2.37;2.20;;;;;;;21.90;59.00;97574.13;5063725;28;20706;-26
2023/06/07 09:09:23;;;;;;;1.97;1.87;;;;;;;21.90;59.37;97581.78;5054289;28;20289;-26
2023/06/07 09:11:51;;;;;;;2.00;1.90;;;;;;;21.91;59.08;97573.31;5067630;28;20202;-26
2023/06/07 09:14:17;;;;;;;2.30;2.20;;;;;;;21.92;59.17;97580.16;5060514;28;20257;-26
2023/06/07 09:16:54;;;;;;;2.07;1.97;;;;;;;21.93;59.02;97570.81;5061823;28;20211;-26
2023/06/07 09:19:37;;;;;;;2.30;2.20;;;;;;;21.94;58.84;97580.19;5067117;28;21949;-26
2023/06/07 09:22:14;;;;;;;2.10;2.00;;;;;;;21.93;58.92;97578.47;5063100;28;20232;-26
2023/06/07 09:24:41;;;;;;;2.03;1.93;;;;;;;21.93;58.93;97571.66;5064504;28;20199;-26
2023/06/07 09:27:09;;;;;;;1.93;1.83;;;;;;;21.94;59.06;97564.84;5046790;28;20200;-26
2023/06/07 09:29:40;;;;;;;2.00;1.90;;;;;;;21.94;58.97;97567.41;5065745;28;20220;-26
2023/06/07 09:32:19;;;;;;;2.10;1.90;;;;;;;21.94;58.82;97564.84;5059914;28;20213;-26
2023/06/07 09:34:46;;;;;;;2.00;1.90;;;;;;;21.92;58.86;97559.69;5058466;28;20201;-26
2023/06/07 09:37:20;;;;;;;1.90;1.80;;;;;;;21.92;59.39;97564.81;5065237;28;20196;-26
2023/06/07 09:39:53;;;;;;;2.23;2.03;;;;;;;21.93;58.86;97568.25;5068362;28;20261;-26
2023/06/07 09:42:20;;;;;;;2.00;1.90;;;;;;;21.93;58.94;97568.25;5063218;28;20323;-26
2023/06/07 09:44:47;;;;;;;2.00;1.90;;;;;;;21.93;58.88;97573.38;5060925;28;20200;-26
2023/06/07 09:47:21;;;;;;;2.40;2.20;;;;;;;21.92;58.97;97562.25;5068884;28;20204;-26
2023/06/07 09:49:48;;;;;;;2.07;1.97;;;;;;;21.91;59.08;97560.53;5037433;28;20212;-26
2023/06/07 09:52:15;;;;;;;2.13;2.03;;;;;;;21.92;58.92;97571.59;5066579;28;20199;-26
2023/06/07 09:54:43;;;;;;;2.20;2.10;;;;;;;21.91;59.07;97568.19;5058303;28;20197;-26
2023/06/07 09:57:11;;;;;;;2.13;2.03;;;;;;;21.90;58.91;97563.03;5055748;28;20248;-26
2023/06/07 09:59:38;;;;;;;1.93;1.83;;;;;;;21.89;59.06;97554.47;5061106;28;20220;-26
2023/06/07 10:02:25;;;;;;;2.00;1.90;;;;;;;21.90;59.13;97563.88;5062909;28;20273;-26
2023/06/07 10:04:53;;;;;;;1.90;1.80;;;;;;;21.91;58.95;97568.19;5064541;28;20200;-26
2023/06/07 10:07:23;;;;;;;2.03;1.93;;;;;;;21.92;59.01;97566.47;5064072;28;20698;-26
2023/06/07 10:09:52;;;;;;;2.10;2.00;;;;;;;21.91;59.07;97559.66;5012606;28;20229;-26
2023/06/07 10:12:21;;;;;;;2.07;1.97;;;;;;;21.90;59.00;97557.91;5042117;28;20256;-26
2023/06/07 10:14:48;;;;;;;2.10;2.00;;;;;;;21.91;59.14;97555.41;5030244;28;20197;-26
2023/06/07 10:17:16;;;;;;;1.90;1.80;;;;;;;21.91;59.15;97559.66;5061141;28;20208;-26
2023/06/07 10:19:44;;;;;;;1.93;1.83;;;;;;;21.91;59.27;97557.09;5029168;28;20216;-26
2023/06/07 10:22:20;;;;;;;2.17;1.97;;;;;;;21.90;59.20;97557.91;5057045;28;20224;-26
2023/06/07 10:25:01;;;;;;;1.97;1.87;;;;;;;21.90;59.06;97555.38;5029701;28;20195;-26
2023/06/07 10:27:28;;;;;;;1.90;1.80;;;;;;;21.90;59.02;97556.22;5048417;28;20209;-26
2023/06/07 10:30:01;;;;;;;2.10;2.00;;;;;;;21.90;59.11;97552.81;5063562;28;20217;-26
2023/06/07 10:32:34;;;;;;;1.67;1.57;;;;;;;21.90;59.05;97550.25;5071344;28;20193;-26
2023/06/07 10:35:01;;;;;;;2.00;1.90;;;;;;;21.88;58.94;97539.09;5070689;28;20200;-26
2023/06/07 10:37:30;;;;;;;1.77;1.67;;;;;;;21.91;59.10;97547.72;5032640;28;20600;-26
2023/06/07 10:39:58;;;;;;;1.90;1.80;;;;;;;21.91;59.06;97540.06;5071517;28;20224;-26
2023/06/07 10:42:24;;;;;;;2.03;1.93;;;;;;;21.92;59.12;97543.47;5047719;28;20248;-26
2023/06/07 10:44:51;;;;;;;1.90;1.80;;;;;;;21.85;59.06;97521.09;5037837;28;20227;-26
2023/06/07 10:47:21;;;;;;;1.70;1.60;;;;;;;21.93;58.85;97534.97;5036704;28;20651;-26
2023/06/07 10:49:51;;;;;;;1.93;1.83;;;;;;;21.92;59.01;97531.53;5064143;28;20221;-26
2023/06/07 10:52:18;;;;;;;1.90;1.80;;;;;;;21.93;58.88;97530.69;5068768;28;20197;-26
2023/06/07 10:54:45;;;;;;;2.00;1.90;;;;;;;21.93;59.05;97524.75;5061032;28;20448;-26
2023/06/07 10:57:12;;;;;;;1.97;1.87;;;;;;;21.93;58.86;97524.75;5065938;28;20197;-26
2023/06/07 10:59:39;;;;;;;2.00;1.90;;;;;;;21.84;58.90;97517.66;5061779;28;20256;-26
2023/06/07 11:02:20;;;;;;;2.10;2.00;;;;;;;21.93;58.99;97532.41;5046791;28;20221;-26
2023/06/07 11:04:56;;;;;;;1.93;1.83;;;;;;;21.92;58.98;97523.88;5066511;28;20687;-26
2023/06/07 11:07:28;;;;;;;2.00;1.90;;;;;;;21.92;59.06;97531.53;5066687;28;20196;-26
2023/06/07 11:10:00;;;;;;;1.90;1.80;;;;;;;21.92;58.88;97526.41;5067951;28;20699;-26
2023/06/07 11:12:43;;;;;;;1.70;1.60;;;;;;;21.92;59.00;97528.97;5067606;28;20200;-26
2023/06/07 11:15:30;;;;;;;1.80;1.70;;;;;;;21.91;59.04;97524.69;5070411;28;20200;-26
2023/06/07 11:18:01;;;;;;;1.80;1.70;;;;;;;21.90;58.98;97517.81;5062117;28;20226;-26
2023/06/07 11:20:40;;;;;;;1.70;1.60;;;;;;;21.91;58.95;97522.13;5048121;28;20216;-26
2023/06/07 11:23:31;;;;;;;2.00;1.90;;;;;;;21.92;59.00;97520.44;5063519;28;20785;-26
2023/06/07 11:26:04;;;;;;;1.87;1.77;;;;;;;21.92;58.92;97515.31;5070153;28;20200;-26
2023/06/07 11:28:34;;;;;;;2.10;2.00;;;;;;;21.92;58.92;97515.31;5060467;28;20205;-26
2023/06/07 11:31:01;;;;;;;1.97;1.87;;;;;;;21.91;58.99;97505.91;5069599;28;20274;-26
2023/06/07 11:33:28;;;;;;;1.80;1.70;;;;;;;21.91;58.93;97514.47;5067320;28;20576;-26
2023/06/07 11:35:56;;;;;;;2.00;1.90;;;;;;;21.90;59.21;97511.88;5065775;28;20255;-26
2023/06/07 11:38:23;;;;;;;1.80;1.70;;;;;;;21.91;58.96;97509.34;5066855;28;20349;-26